createdAt,value
2018-01-29T00:00:45.098Z,18.97
2018-01-29T00:03:13.448Z,17.87
2018-01-29T00:05:40.980Z,16.70
2018-01-29T00:08:08.476Z,16.60
2018-01-29T00:10:35.957Z,16.73
2018-01-29T00:13:03.478Z,15.50
2018-01-29T00:15:30.974Z,16.10
2018-01-29T00:17:59.235Z,16.07
2018-01-29T00:20:27.522Z,16.40
2018-01-29T00:22:55.800Z,16.20
2018-01-29T00:25:24.055Z,15.43
2018-01-29T00:27:51.569Z,16.03
2018-01-29T00:30:19.068Z,15.40
2018-01-29T00:32:46.567Z,15.40
2018-01-29T00:35:14.079Z,15.50
2018-01-29T00:37:41.573Z,15.40
2018-01-29T00:40:09.078Z,16.23
2018-01-29T00:42:36.605Z,15.23
2018-01-29T00:45:04.112Z,15.07
2018-01-29T00:47:31.603Z,14.33
2018-01-29T00:49:59.138Z,14.03
2018-01-29T00:52:27.415Z,13.87
2018-01-29T00:54:55.693Z,14.73
2018-01-29T00:57:23.225Z,14.33
2018-01-29T00:59:51.499Z,14.20
2018-01-29T01:02:19.018Z,14.33
2018-01-29T01:04:46.534Z,14.90
2018-01-29T01:07:14.036Z,14.87
2018-01-29T01:09:41.533Z,13.37
2018-01-29T01:12:09.851Z,14.33
2018-01-29T01:14:37.358Z,12.50
2018-01-29T01:17:04.854Z,13.97
2018-01-29T01:19:32.377Z,12.83
2018-01-29T01:21:59.897Z,12.27
2018-01-29T01:24:27.395Z,11.57
2018-01-29T01:26:54.920Z,10.53
2018-01-29T01:29:22.421Z,9.90
2018-01-29T01:31:49.954Z,10.17
2018-01-29T01:34:17.476Z,9.20
2018-01-29T01:36:44.983Z,9.93
2018-01-29T01:39:12.487Z,9.77
2018-01-29T01:41:39.982Z,9.87
2018-01-29T01:44:07.480Z,8.97
2018-01-29T01:46:35.010Z,9.90
2018-01-29T01:49:02.524Z,9.80
2018-01-29T01:51:30.037Z,9.27
2018-01-29T01:53:57.536Z,10.50
2018-01-29T01:56:25.065Z,9.57
2018-01-29T01:58:52.559Z,9.20
2018-01-29T02:01:20.078Z,9.93
2018-01-29T02:03:47.601Z,10.00
2018-01-29T02:06:15.102Z,10.53
2018-01-29T02:08:43.378Z,10.33
2018-01-29T02:11:10.896Z,10.10
2018-01-29T02:13:38.389Z,8.83
2018-01-29T02:16:05.877Z,9.93
2018-01-29T02:18:33.392Z,9.57
2018-01-29T02:21:00.919Z,11.07
2018-01-29T02:23:28.411Z,10.13
2018-01-29T02:25:55.922Z,9.67
2018-01-29T02:28:23.402Z,8.80
2018-01-29T02:30:50.886Z,8.43
2018-01-29T02:33:18.408Z,8.27
2018-01-29T02:35:45.886Z,7.73
2018-01-29T02:38:13.389Z,7.23
2018-01-29T02:40:41.668Z,6.47
2018-01-29T02:43:09.160Z,5.73
2018-01-29T02:45:36.662Z,5.50
2018-01-29T02:48:04.959Z,5.67
2018-01-29T02:50:32.451Z,5.57
2018-01-29T02:52:59.951Z,4.77
2018-01-29T02:55:28.223Z,5.50
2018-01-29T02:57:55.716Z,4.77
2018-01-29T03:00:23.242Z,4.60
2018-01-29T03:02:50.749Z,5.33
2018-01-29T03:05:18.242Z,5.57
2018-01-29T03:07:45.730Z,5.50
2018-01-29T03:10:14.011Z,5.47
2018-01-29T03:12:42.257Z,5.57
2018-01-29T03:15:09.760Z,5.30
2018-01-29T03:17:37.277Z,5.93
2018-01-29T03:20:04.756Z,5.63
2018-01-29T03:22:32.252Z,5.90
2018-01-29T03:24:59.789Z,5.67
2018-01-29T03:27:27.274Z,6.27
2018-01-29T03:29:54.763Z,6.23
2018-01-29T03:32:22.293Z,7.00
2018-01-29T03:34:49.784Z,7.17
2018-01-29T03:37:17.283Z,7.40
2018-01-29T03:39:44.799Z,7.63
2018-01-29T03:42:13.070Z,8.53
2018-01-29T03:44:40.580Z,8.60
2018-01-29T03:47:08.105Z,8.20
2018-01-29T03:49:35.614Z,7.30
2018-01-29T03:52:03.112Z,7.27
2018-01-29T03:54:31.400Z,6.43
2018-01-29T03:56:59.658Z,6.20
2018-01-29T03:59:27.935Z,6.07
2018-01-29T04:01:56.223Z,5.67
2018-01-29T04:04:23.721Z,5.90
2018-01-29T04:06:51.209Z,5.40
2018-01-29T04:09:18.735Z,5.40
2018-01-29T04:11:46.224Z,4.63
2018-01-29T04:14:13.734Z,4.13
2018-01-29T04:16:41.242Z,5.47
2018-01-29T04:19:08.729Z,3.50
2018-01-29T04:21:36.213Z,3.97
2018-01-29T04:24:03.725Z,4.17
2018-01-29T04:26:31.979Z,3.87
2018-01-29T04:28:59.476Z,3.87
2018-01-29T04:31:27.756Z,3.53
2018-01-29T04:33:56.012Z,3.23
2018-01-29T04:36:23.535Z,3.53
2018-01-29T04:38:51.042Z,3.10
2018-01-29T04:41:19.305Z,3.27
2018-01-29T04:43:47.573Z,3.37
2018-01-29T04:46:31.753Z,3.03
2018-01-29T04:48:59.256Z,3.23
2018-01-29T04:51:26.756Z,2.80
2018-01-29T04:53:54.266Z,3.53
2018-01-29T04:56:21.772Z,2.93
2018-01-29T04:58:50.027Z,2.90
2018-01-29T05:01:17.543Z,2.50
2018-01-29T05:03:45.023Z,2.70
2018-01-29T05:06:12.521Z,2.30
2018-01-29T05:08:40.805Z,2.20
2018-01-29T05:11:08.320Z,2.33
2018-01-29T05:13:35.805Z,2.03
2018-01-29T05:16:04.082Z,2.30
2018-01-29T05:18:31.593Z,2.37
2018-01-29T05:20:59.086Z,2.10
2018-01-29T05:23:26.610Z,2.67
2018-01-29T05:25:54.101Z,2.13
2018-01-29T05:28:22.355Z,2.50
2018-01-29T05:30:49.985Z,2.43
2018-01-29T05:33:17.475Z,3.07
2018-01-29T05:35:50.808Z,2.47
2018-01-29T05:38:35.773Z,2.43
2018-01-29T05:41:04.061Z,2.70
2018-01-29T05:43:31.560Z,2.60
2018-01-29T05:45:59.838Z,2.67
2018-01-29T05:48:27.351Z,2.20
2018-01-29T05:50:54.843Z,2.73
2018-01-29T05:53:22.340Z,3.53
2018-01-29T05:55:49.856Z,2.53
2018-01-29T05:58:17.354Z,2.47
2018-01-29T06:00:44.844Z,2.67
2018-01-29T06:03:12.352Z,2.90
2018-01-29T06:05:39.839Z,2.50
2018-01-29T06:08:08.099Z,2.20
2018-01-29T06:10:36.377Z,2.30
2018-01-29T06:13:04.650Z,2.30
2018-01-29T06:15:32.152Z,2.00
2018-01-29T06:17:59.677Z,2.23
2018-01-29T06:20:27.164Z,2.20
2018-01-29T06:22:54.689Z,2.50
2018-01-29T06:25:22.967Z,2.13
2018-01-29T06:27:51.222Z,2.10
2018-01-29T06:30:18.711Z,1.70
2018-01-29T06:32:46.222Z,2.30
2018-01-29T06:35:13.707Z,2.00
2018-01-29T06:37:41.212Z,2.10
2018-01-29T06:40:08.714Z,2.10
2018-01-29T06:42:36.227Z,2.30
2018-01-29T06:45:03.720Z,2.50
2018-01-29T06:47:31.240Z,2.30
2018-01-29T06:49:58.728Z,2.33
2018-01-29T06:52:26.255Z,2.57
2018-01-29T06:54:53.771Z,2.10
2018-01-29T06:57:21.272Z,2.23
2018-01-29T06:59:48.813Z,1.73
2018-01-29T07:02:16.322Z,1.93
2018-01-29T07:04:43.829Z,2.30
2018-01-29T07:07:11.323Z,2.03
2018-01-29T07:09:38.850Z,2.33
2018-01-29T07:12:06.352Z,2.67
2018-01-29T07:14:33.856Z,2.03
2018-01-29T07:17:01.378Z,2.00
2018-01-29T07:19:28.877Z,2.03
2018-01-29T07:21:56.367Z,2.10
2018-01-29T07:24:23.883Z,2.13
2018-01-29T07:26:52.141Z,1.77
2018-01-29T07:29:20.406Z,2.13
2018-01-29T07:31:47.936Z,1.97
2018-01-29T07:34:15.428Z,2.20
2018-01-29T07:36:43.111Z,2.10
2018-01-29T07:39:10.775Z,1.80
2018-01-29T07:41:38.264Z,1.83
2018-01-29T07:44:05.983Z,2.20
2018-01-29T07:46:34.275Z,1.80
2018-01-29T07:49:01.809Z,1.93
2018-01-29T07:51:29.368Z,1.90
2018-01-29T07:53:57.666Z,1.77
2018-01-29T07:56:25.162Z,2.30
2018-01-29T07:58:52.671Z,2.43
2018-01-29T08:01:20.192Z,2.00
2018-01-29T08:03:47.702Z,2.33
2018-01-29T08:06:15.219Z,2.13
2018-01-29T08:08:42.727Z,1.87
2018-01-29T08:11:10.219Z,1.80
2018-01-29T08:13:37.841Z,2.07
2018-01-29T08:16:05.361Z,1.73
2018-01-29T08:18:32.878Z,2.47
2018-01-29T08:21:00.395Z,2.03
2018-01-29T08:23:27.939Z,1.80
2018-01-29T08:25:55.428Z,1.90
2018-01-29T08:28:22.933Z,2.33
2018-01-29T08:30:50.439Z,1.80
2018-01-29T08:33:17.942Z,2.60
2018-01-29T08:35:45.508Z,1.90
2018-01-29T08:38:12.984Z,1.77
2018-01-29T08:40:40.479Z,1.80
2018-01-29T08:43:07.975Z,2.00
2018-01-29T08:45:35.505Z,1.60
2018-01-29T08:48:03.005Z,1.97
2018-01-29T08:50:30.513Z,1.50
2018-01-29T08:52:58.016Z,1.87
2018-01-29T08:55:25.532Z,1.70
2018-01-29T08:57:53.057Z,1.90
2018-01-29T09:00:21.340Z,1.83
2018-01-29T09:02:49.833Z,1.77
2018-01-29T09:05:17.420Z,1.67
2018-01-29T09:07:44.941Z,1.43
2018-01-29T09:10:12.460Z,1.60
2018-01-29T09:12:39.956Z,2.27
2018-01-29T09:15:07.489Z,1.70
2018-01-29T09:17:35.003Z,1.43
2018-01-29T09:20:02.494Z,1.73
2018-01-29T09:22:30.016Z,1.83
2018-01-29T09:24:57.519Z,1.90
2018-01-29T09:27:25.017Z,1.60
2018-01-29T09:29:53.369Z,1.53
2018-01-29T09:32:21.644Z,2.10
2018-01-29T09:34:49.914Z,1.53
2018-01-29T09:37:18.192Z,2.30
2018-01-29T09:39:46.504Z,2.13
2018-01-29T09:42:14.002Z,2.10
2018-01-29T09:44:41.516Z,2.20
2018-01-29T09:47:09.016Z,2.13
2018-01-29T09:49:36.509Z,1.80
2018-01-29T09:52:04.787Z,2.20
2018-01-29T09:54:33.051Z,1.83
2018-01-29T09:57:01.320Z,2.33
2018-01-29T09:59:28.822Z,2.00
2018-01-29T10:01:56.312Z,1.90
2018-01-29T10:04:23.804Z,2.30
2018-01-29T10:06:51.330Z,1.93
2018-01-29T10:09:18.810Z,2.70
2018-01-29T10:11:47.092Z,2.10
2018-01-29T10:14:15.366Z,1.93
2018-01-29T10:16:42.867Z,2.00
2018-01-29T10:19:10.346Z,1.90
2018-01-29T10:21:37.872Z,1.87
2018-01-29T10:24:05.358Z,2.53
2018-01-29T10:26:32.857Z,1.87
2018-01-29T10:29:01.384Z,2.00
2018-01-29T10:31:28.877Z,2.43
2018-01-29T10:33:56.367Z,2.03
2018-01-29T10:36:23.875Z,2.00
2018-01-29T10:38:52.125Z,2.80
2018-01-29T10:41:19.638Z,2.57
2018-01-29T10:43:47.180Z,1.80
2018-01-29T10:46:14.663Z,1.67
2018-01-29T10:48:42.193Z,1.93
2018-01-29T10:51:09.705Z,2.30
2018-01-29T10:53:37.200Z,2.00
2018-01-29T10:56:04.703Z,2.30
2018-01-29T10:58:32.988Z,2.03
2018-01-29T11:01:06.204Z,1.70
2018-01-29T11:03:33.714Z,2.17
2018-01-29T11:06:01.953Z,2.30
2018-01-29T11:08:29.448Z,2.03
2018-01-29T11:10:57.758Z,2.20
2018-01-29T11:13:25.258Z,2.03
2018-01-29T11:15:52.750Z,2.83
2018-01-29T11:18:20.277Z,2.07
2018-01-29T11:20:47.803Z,2.50
2018-01-29T11:23:15.289Z,2.40
2018-01-29T11:25:42.797Z,2.50
2018-01-29T11:28:10.298Z,2.60
2018-01-29T11:30:37.788Z,2.33
2018-01-29T11:33:06.077Z,2.30
2018-01-29T11:35:34.338Z,2.83
2018-01-29T11:38:02.634Z,2.17
2018-01-29T11:40:30.918Z,2.10
2018-01-29T11:42:58.527Z,2.20
2018-01-29T11:45:26.021Z,2.00
2018-01-29T11:47:53.532Z,2.67
2018-01-29T11:50:21.029Z,2.57
2018-01-29T11:52:49.303Z,2.30
2018-01-29T11:55:17.584Z,2.27
2018-01-29T11:57:45.851Z,2.40
2018-01-29T12:00:14.132Z,2.40
2018-01-29T12:02:41.652Z,2.20
2018-01-29T12:05:09.147Z,2.50
2018-01-29T12:07:37.435Z,1.87
2018-01-29T12:10:04.960Z,2.00
2018-01-29T12:12:32.449Z,1.90
2018-01-29T12:15:00.020Z,1.87
2018-01-29T12:17:27.544Z,2.43
2018-01-29T12:19:55.027Z,1.80
2018-01-29T12:22:22.528Z,2.07
2018-01-29T12:24:50.798Z,1.80
2018-01-29T12:27:18.293Z,1.97
2018-01-29T12:29:45.824Z,2.00
2018-01-29T12:32:13.372Z,2.30
2018-01-29T12:34:40.874Z,2.03
2018-01-29T12:37:09.145Z,1.90
2018-01-29T12:39:37.419Z,1.80
2018-01-29T12:42:04.903Z,1.90
2018-01-29T12:44:32.386Z,2.00
2018-01-29T12:46:59.899Z,1.60
2018-01-29T12:49:27.386Z,1.80
2018-01-29T12:51:54.876Z,2.00
2018-01-29T12:54:22.390Z,1.80
2018-01-29T12:56:50.659Z,1.73
2018-01-29T12:59:18.923Z,1.80
2018-01-29T13:01:47.208Z,2.30
2018-01-29T13:04:14.708Z,1.70
2018-01-29T13:06:42.996Z,1.50
2018-01-29T13:09:10.596Z,1.67
2018-01-29T13:11:38.114Z,2.13
2018-01-29T13:14:05.749Z,1.90
2018-01-29T13:16:33.304Z,1.70
2018-01-29T13:19:00.802Z,1.50
2018-01-29T13:21:28.288Z,1.70
2018-01-29T13:23:56.570Z,1.80
2018-01-29T13:26:24.837Z,1.60
2018-01-29T13:28:52.438Z,1.50
2018-01-29T13:31:20.054Z,1.57
2018-01-29T13:33:48.350Z,1.27
2018-01-29T13:36:16.751Z,1.27
2018-01-29T13:38:44.253Z,1.27
2018-01-29T13:41:11.797Z,1.60
2018-01-29T13:43:39.285Z,1.50
2018-01-29T13:46:07.562Z,1.37
2018-01-29T13:48:35.823Z,1.30
2018-01-29T13:51:03.376Z,1.57
2018-01-29T13:53:30.935Z,1.33
2018-01-29T13:55:59.218Z,1.27
2018-01-29T13:58:26.712Z,1.27
2018-01-29T14:00:54.283Z,1.63
2018-01-29T14:03:21.811Z,1.70
2018-01-29T14:05:49.507Z,1.60
2018-01-29T14:08:17.154Z,1.40
2018-01-29T14:10:44.687Z,1.63
2018-01-29T14:13:12.950Z,1.13
2018-01-29T14:15:40.464Z,1.40
2018-01-29T14:18:07.951Z,1.47
2018-01-29T14:20:35.457Z,0.93
2018-01-29T14:23:02.991Z,1.30
2018-01-29T14:25:31.250Z,1.10
2018-01-29T14:27:58.735Z,1.30
2018-01-29T14:30:27.010Z,1.07
2018-01-29T14:32:55.371Z,1.07
2018-01-29T14:35:22.933Z,1.20
2018-01-29T14:37:51.209Z,1.03
2018-01-29T14:40:18.719Z,1.03
2018-01-29T14:42:46.251Z,1.10
2018-01-29T14:45:13.916Z,1.10
2018-01-29T14:47:42.232Z,1.20
2018-01-29T14:50:09.723Z,1.30
2018-01-29T14:52:37.240Z,1.00
2018-01-29T14:55:04.761Z,1.03
2018-01-29T14:57:32.251Z,0.90
2018-01-29T14:59:59.760Z,0.90
2018-01-29T15:02:27.253Z,1.20
2018-01-29T15:04:54.753Z,1.13
2018-01-29T15:07:22.274Z,0.50
2018-01-29T15:09:49.773Z,0.70
2018-01-29T15:12:17.453Z,0.50
2018-01-29T15:14:45.027Z,0.73
2018-01-29T15:17:12.695Z,0.70
2018-01-29T15:19:40.372Z,0.50
2018-01-29T15:22:07.908Z,0.70
2018-01-29T15:24:36.203Z,0.60
2018-01-29T15:27:03.737Z,0.60
2018-01-29T15:29:31.282Z,0.57
2018-01-29T15:31:59.591Z,0.20
2018-01-29T15:34:27.095Z,0.20
2018-01-29T15:36:54.645Z,0.33
2018-01-29T15:39:22.134Z,0.47
2018-01-29T15:41:50.452Z,0.70
2018-01-29T15:44:18.032Z,0.50
2018-01-29T15:46:45.579Z,0.40
2018-01-29T15:49:13.166Z,0.50
2018-01-29T15:51:40.889Z,0.60
2018-01-29T15:54:08.596Z,0.40
2018-01-29T15:56:36.194Z,0.50
2018-01-29T15:59:03.733Z,0.50
2018-01-29T16:01:31.286Z,1.00
2018-01-29T16:03:58.849Z,0.40
2018-01-29T16:06:27.237Z,0.70
2018-01-29T16:08:55.622Z,0.67
2018-01-29T16:11:23.184Z,0.50
2018-01-29T16:13:52.564Z,0.43
2018-01-29T16:16:20.851Z,0.50
2018-01-29T16:18:49.319Z,0.37
2018-01-29T16:21:17.707Z,0.70
2018-01-29T16:23:45.231Z,0.70
2018-01-29T16:26:12.758Z,0.70
2018-01-29T16:28:40.308Z,0.90
2018-01-29T16:31:07.790Z,0.87
2018-01-29T16:33:35.300Z,0.90
2018-01-29T16:36:03.607Z,1.00
2018-01-29T16:38:31.210Z,0.90
2018-01-29T16:40:58.720Z,0.87
2018-01-29T16:43:26.310Z,0.80
2018-01-29T16:45:53.815Z,0.90
2018-01-29T16:48:22.062Z,0.80
2018-01-29T16:50:49.948Z,1.00
2018-01-29T16:53:18.217Z,0.80
2018-01-29T16:55:45.720Z,0.97
2018-01-29T16:58:13.229Z,0.87
2018-01-29T17:00:40.744Z,1.00
2018-01-29T17:03:08.241Z,1.27
2018-01-29T17:05:35.768Z,0.77
2018-01-29T17:08:03.264Z,1.67
2018-01-29T17:10:30.799Z,0.97
2018-01-29T17:12:58.305Z,0.80
2018-01-29T17:15:25.810Z,0.90
2018-01-29T17:17:53.351Z,0.80
2018-01-29T17:20:20.867Z,0.97
2018-01-29T17:22:49.137Z,1.33
2018-01-29T17:25:17.396Z,1.50
2018-01-29T17:27:45.193Z,1.43
2018-01-29T17:30:12.681Z,1.33
2018-01-29T17:32:40.173Z,1.47
2018-01-29T17:35:07.691Z,1.27
2018-01-29T17:37:35.260Z,1.80
2018-01-29T17:40:02.807Z,1.43
2018-01-29T17:42:30.356Z,1.50
2018-01-29T17:44:57.884Z,1.50
2018-01-29T17:47:26.153Z,1.27
2018-01-29T17:49:54.485Z,1.20
2018-01-29T17:52:21.980Z,1.10
2018-01-29T17:54:49.463Z,1.17
2018-01-29T17:57:17.845Z,1.40
2018-01-29T17:59:45.340Z,1.23
2018-01-29T18:02:12.860Z,1.67
2018-01-29T18:04:41.127Z,1.60
2018-01-29T18:07:09.399Z,1.90
2018-01-29T18:09:37.673Z,1.93
2018-01-29T18:12:05.973Z,1.53
2018-01-29T18:14:33.479Z,1.87
2018-01-29T18:17:00.987Z,1.73
2018-01-29T18:19:28.552Z,1.80
2018-01-29T18:21:56.068Z,1.83
2018-01-29T18:24:23.560Z,1.70
2018-01-29T18:26:51.078Z,2.30
2018-01-29T18:29:18.630Z,1.97
2018-01-29T18:31:46.266Z,1.90
2018-01-29T18:34:14.162Z,2.20
2018-01-29T18:36:41.677Z,2.67
2018-01-29T18:39:10.174Z,2.00
2018-01-29T18:41:37.846Z,2.30
2018-01-29T18:44:05.405Z,2.83
2018-01-29T18:46:32.957Z,2.37
2018-01-29T18:49:00.521Z,2.73
2018-01-29T18:51:28.044Z,2.40
2018-01-29T18:53:55.604Z,2.73
2018-01-29T18:56:23.188Z,2.53
2018-01-29T18:58:51.527Z,2.67
2018-01-29T19:01:19.051Z,3.00
2018-01-29T19:03:46.647Z,2.37
2018-01-29T19:06:14.221Z,2.70
2018-01-29T19:08:41.743Z,3.03
2018-01-29T19:11:10.059Z,3.00
2018-01-29T19:13:37.586Z,3.27
2018-01-29T19:16:05.134Z,2.50
2018-01-29T19:18:33.471Z,3.13
2018-01-29T19:21:01.027Z,2.70
2018-01-29T19:23:28.527Z,3.47
2018-01-29T19:25:56.868Z,2.93
2018-01-29T19:28:24.404Z,2.23
2018-01-29T19:30:51.952Z,2.70
2018-01-29T19:33:19.632Z,2.50
2018-01-29T19:35:47.292Z,2.90
2018-01-29T19:38:14.832Z,1.97
2018-01-29T19:40:42.416Z,2.80
2018-01-29T19:43:09.975Z,2.63
2018-01-29T19:45:37.508Z,2.30
2018-01-29T19:48:05.396Z,2.10
2018-01-29T19:50:33.057Z,2.13
2018-01-29T19:53:00.589Z,2.40
2018-01-29T19:55:28.275Z,2.03
2018-01-29T19:57:55.812Z,1.80
2018-01-29T20:00:24.117Z,1.97
2018-01-29T20:02:51.680Z,2.90
2018-01-29T20:05:19.910Z,2.10
2018-01-29T20:07:48.183Z,2.13
2018-01-29T20:10:15.752Z,2.03
2018-01-29T20:12:43.316Z,2.20
2018-01-29T20:15:10.870Z,2.60
2018-01-29T20:17:39.204Z,1.67
2018-01-29T20:20:06.978Z,1.87
2018-01-29T20:22:34.519Z,2.40
2018-01-29T20:25:02.297Z,1.50
2018-01-29T20:27:29.869Z,1.60
2018-01-29T20:29:57.516Z,1.30
2018-01-29T20:32:25.066Z,1.87
2018-01-29T20:34:52.617Z,1.90
2018-01-29T20:37:20.306Z,1.97
2018-01-29T20:39:47.863Z,2.00
2018-01-29T20:42:16.097Z,2.27
2018-01-29T20:44:44.582Z,3.23
2018-01-29T20:47:12.328Z,2.20
2018-01-29T20:49:39.883Z,2.40
2018-01-29T20:52:07.433Z,2.93
2018-01-29T20:54:35.420Z,3.13
2018-01-29T20:57:02.952Z,3.03
2018-01-29T20:59:30.524Z,3.53
2018-01-29T21:01:58.066Z,3.03
2018-01-29T21:04:26.480Z,3.40
2018-01-29T21:06:54.001Z,2.90
2018-01-29T21:09:22.325Z,4.00
2018-01-29T21:11:49.870Z,3.30
2018-01-29T21:14:17.378Z,3.37
2018-01-29T21:16:44.915Z,2.70
2018-01-29T21:19:12.445Z,3.10
2018-01-29T21:21:39.966Z,3.70
2018-01-29T21:24:07.518Z,4.30
2018-01-29T21:26:35.045Z,3.43
2018-01-29T21:29:02.578Z,3.57
2018-01-29T21:31:31.042Z,2.80
2018-01-29T21:33:58.579Z,3.70
2018-01-29T21:36:26.852Z,3.90
2018-01-29T21:38:55.194Z,3.33
2018-01-29T21:41:22.711Z,3.37
2018-01-29T21:43:50.667Z,3.20
2018-01-29T21:46:18.973Z,2.80
2018-01-29T21:48:46.599Z,3.57
2018-01-29T21:51:14.846Z,3.17
2018-01-29T21:53:42.436Z,3.07
2018-01-29T21:56:10.108Z,4.00
2018-01-29T21:58:37.654Z,3.63
2018-01-29T22:01:05.204Z,3.00
2018-01-29T22:03:33.480Z,3.60
2018-01-29T22:06:00.981Z,3.53
2018-01-29T22:08:28.615Z,2.93
2018-01-29T22:10:56.892Z,3.53
2018-01-29T22:13:25.186Z,3.10
2018-01-29T22:15:53.128Z,3.53
2018-01-29T22:18:21.404Z,3.10
2018-01-29T22:20:49.841Z,2.97
2018-01-29T22:23:17.374Z,2.97
2018-01-29T22:25:45.012Z,3.13
2018-01-29T22:28:12.507Z,3.30
2018-01-29T22:30:40.148Z,3.20
2018-01-29T22:33:07.646Z,3.50
2018-01-29T22:35:35.175Z,3.17
2018-01-29T22:38:02.684Z,3.17
2018-01-29T22:40:30.188Z,3.03
2018-01-29T22:42:57.687Z,2.67
2018-01-29T22:45:25.599Z,3.30
2018-01-29T22:47:53.190Z,3.67
2018-01-29T22:50:20.696Z,2.80
2018-01-29T22:52:48.979Z,3.53
2018-01-29T22:55:17.274Z,3.07
2018-01-29T22:57:44.829Z,3.33
2018-01-29T23:00:17.387Z,2.90
2018-01-29T23:02:45.053Z,3.40
2018-01-29T23:05:12.625Z,3.00
2018-01-29T23:07:40.224Z,2.87
2018-01-29T23:10:07.742Z,3.13
2018-01-29T23:12:35.240Z,3.57
2018-01-29T23:15:02.761Z,3.07
2018-01-29T23:17:30.501Z,3.20
2018-01-29T23:19:58.007Z,3.40
2018-01-29T23:22:25.547Z,3.73
2018-01-29T23:24:53.053Z,3.37
2018-01-29T23:27:20.556Z,4.03
2018-01-29T23:29:48.170Z,2.50
2018-01-29T23:32:15.732Z,4.03
2018-01-29T23:34:43.255Z,3.43
2018-01-29T23:37:10.899Z,3.37
2018-01-29T23:39:38.424Z,3.43
2018-01-29T23:42:06.717Z,3.00
2018-01-29T23:44:35.332Z,3.67
2018-01-29T23:47:02.965Z,3.13
2018-01-29T23:49:30.635Z,3.10
2018-01-29T23:51:58.222Z,3.07
2018-01-29T23:54:25.728Z,3.00
2018-01-29T23:56:54.003Z,3.43
2018-01-29T23:59:22.595Z,3.77
